sensor_id;sensor_type;location;lat;lon;timestamp;pressure;altitude;pressure_sealevel;temperature;humidity
20043;BME280;10182;52.896;6.496;2023-09-19T00:03:18;100411.97;;;13.85;100.00
20043;BME280;10182;52.896;6.496;2023-09-19T00:08:20;100403.66;;;13.77;100.00
20043;BME280;10182;52.896;6.496;2023-09-19T00:13:25;100412.69;;;13.75;100.00
20043;BME280;10182;52.896;6.496;2023-09-19T00:18:29;100419.56;;;13.64;100.00
20043;BME280;10182;52.896;6.496;2023-09-19T00:23:32;100428.97;;;13.56;100.00
20043;BME280;10182;52.896;6.496;2023-09-19T00:28:35;100437.06;;;13.54;100.00
20043;BME280;10182;52.896;6.496;2023-09-19T00:33:37;100441.19;;;13.45;100.00
20043;BME280;10182;52.896;6.496;2023-09-19T00:38:39;100455.22;;;13.47;100.00
20043;BME280;10182;52.896;6.496;2023-09-19T00:43:42;100454.13;;;13.37;100.00
20043;BME280;10182;52.896;6.496;2023-09-19T00:48:43;100463.22;;;13.33;100.00
20043;BME280;10182;52.896;6.496;2023-09-19T00:53:46;100469.84;;;13.26;100.00
20043;BME280;10182;52.896;6.496;2023-09-19T00:58:49;100478.13;;;13.21;100.00
20043;BME280;10182;52.896;6.496;2023-09-19T01:03:51;100474.78;;;13.17;100.00
20043;BME280;10182;52.896;6.496;2023-09-19T01:08:54;100491.31;;;13.23;100.00
20043;BME280;10182;52.896;6.496;2023-09-19T01:14:03;100479.63;;;13.25;100.00
20043;BME280;10182;52.896;6.496;2023-09-19T01:25:02;100481.81;;;13.18;100.00
20043;BME280;10182;52.896;6.496;2023-09-19T01:30:13;100484.47;;;13.18;100.00
20043;BME280;10182;52.896;6.496;2023-09-19T01:35:16;100485.25;;;13.20;100.00
20043;BME280;10182;52.896;6.496;2023-09-19T01:40:20;100496.44;;;13.11;100.00
20043;BME280;10182;52.896;6.496;2023-09-19T01:45:29;100491.22;;;13.10;100.00
20043;BME280;10182;52.896;6.496;2023-09-19T01:50:42;100495.13;;;13.04;100.00
20043;BME280;10182;52.896;6.496;2023-09-19T01:55:48;100502.13;;;13.05;100.00
20043;BME280;10182;52.896;6.496;2023-09-19T02:00:55;100501.72;;;12.97;100.00
20043;BME280;10182;52.896;6.496;2023-09-19T02:05:58;100500.22;;;12.93;100.00
20043;BME280;10182;52.896;6.496;2023-09-19T02:10:59;100491.94;;;12.83;100.00
20043;BME280;10182;52.896;6.496;2023-09-19T02:16:03;100501.03;;;12.79;100.00
20043;BME280;10182;52.896;6.496;2023-09-19T02:21:05;100503.59;;;12.80;100.00
20043;BME280;10182;52.896;6.496;2023-09-19T02:26:07;100502.19;;;12.75;100.00
20043;BME280;10182;52.896;6.496;2023-09-19T02:31:10;100516.88;;;12.66;100.00
20043;BME280;10182;52.896;6.496;2023-09-19T02:36:12;100519.69;;;12.63;100.00
20043;BME280;10182;52.896;6.496;2023-09-19T02:41:17;100524.59;;;12.55;100.00
20043;BME280;10182;52.896;6.496;2023-09-19T02:46:20;100517.84;;;12.49;100.00
20043;BME280;10182;52.896;6.496;2023-09-19T02:51:22;100518.44;;;12.54;100.00
20043;BME280;10182;52.896;6.496;2023-09-19T02:56:24;100516.31;;;12.45;100.00
20043;BME280;10182;52.896;6.496;2023-09-19T03:01:27;100532.34;;;12.43;100.00
20043;BME280;10182;52.896;6.496;2023-09-19T03:06:29;100527.53;;;12.50;100.00
20043;BME280;10182;52.896;6.496;2023-09-19T03:11:32;100530.09;;;12.51;100.00
20043;BME280;10182;52.896;6.496;2023-09-19T03:16:35;100523.94;;;12.51;100.00
20043;BME280;10182;52.896;6.496;2023-09-19T03:21:37;100509.63;;;12.53;100.00
20043;BME280;10182;52.896;6.496;2023-09-19T03:26:39;100499.00;;;12.53;100.00
20043;BME280;10182;52.896;6.496;2023-09-19T03:31:43;100522.91;;;12.53;100.00
20043;BME280;10182;52.896;6.496;2023-09-19T03:36:46;100532.41;;;12.58;100.00
20043;BME280;10182;52.896;6.496;2023-09-19T03:41:47;100551.94;;;12.57;100.00
20043;BME280;10182;52.896;6.496;2023-09-19T03:46:51;100529.47;;;12.62;100.00
20043;BME280;10182;52.896;6.496;2023-09-19T03:51:53;100518.34;;;12.56;100.00
20043;BME280;10182;52.896;6.496;2023-09-19T03:56:54;100506.19;;;12.51;100.00
20043;BME280;10182;52.896;6.496;2023-09-19T04:01:57;100512.53;;;12.49;100.00
20043;BME280;10182;52.896;6.496;2023-09-19T04:06:59;100517.19;;;12.45;100.00
20043;BME280;10182;52.896;6.496;2023-09-19T04:12:01;100518.72;;;12.49;100.00
20043;BME280;10182;52.896;6.496;2023-09-19T04:17:05;100516.47;;;12.58;100.00
20043;BME280;10182;52.896;6.496;2023-09-19T04:22:07;100522.44;;;12.61;100.00
20043;BME280;10182;52.896;6.496;2023-09-19T04:27:09;100531.69;;;12.70;100.00
20043;BME280;10182;52.896;6.496;2023-09-19T04:32:14;100533.13;;;12.76;100.00
20043;BME280;10182;52.896;6.496;2023-09-19T04:37:18;100553.25;;;12.80;100.00
20043;BME280;10182;52.896;6.496;2023-09-19T04:42:19;100562.31;;;12.92;100.00
20043;BME280;10182;52.896;6.496;2023-09-19T04:47:23;100581.41;;;12.98;100.00
20043;BME280;10182;52.896;6.496;2023-09-19T04:52:25;100573.16;;;13.03;100.00
20043;BME280;10182;52.896;6.496;2023-09-19T04:57:26;100586.56;;;13.01;100.00
20043;BME280;10182;52.896;6.496;2023-09-19T05:02:30;100599.16;;;12.98;100.00
20043;BME280;10182;52.896;6.496;2023-09-19T05:07:32;100575.44;;;12.95;100.00
20043;BME280;10182;52.896;6.496;2023-09-19T05:12:34;100582.63;;;12.93;100.00
20043;BME280;10182;52.896;6.496;2023-09-19T05:17:37;100597.91;;;12.89;100.00
20043;BME280;10182;52.896;6.496;2023-09-19T05:22:40;100589.84;;;12.91;100.00
20043;BME280;10182;52.896;6.496;2023-09-19T05:27:42;100578.97;;;12.79;100.00
20043;BME280;10182;52.896;6.496;2023-09-19T05:32:45;100583.25;;;12.82;100.00
20043;BME280;10182;52.896;6.496;2023-09-19T05:37:47;100578.91;;;12.81;100.00
20043;BME280;10182;52.896;6.496;2023-09-19T05:42:51;100588.84;;;12.77;100.00
20043;BME280;10182;52.896;6.496;2023-09-19T05:47:54;100586.63;;;12.69;100.00
20043;BME280;10182;52.896;6.496;2023-09-19T05:53:01;100600.88;;;12.68;100.00
20043;BME280;10182;52.896;6.496;2023-09-19T05:58:04;100603.59;;;12.67;100.00
20043;BME280;10182;52.896;6.496;2023-09-19T06:03:07;100600.38;;;12.62;100.00
20043;BME280;10182;52.896;6.496;2023-09-19T06:08:09;100612.88;;;12.60;100.00
20043;BME280;10182;52.896;6.496;2023-09-19T06:13:12;100624.28;;;12.62;100.00
20043;BME280;10182;52.896;6.496;2023-09-19T06:18:15;100622.88;;;12.70;100.00
20043;BME280;10182;52.896;6.496;2023-09-19T06:23:21;100619.94;;;12.75;100.00
20043;BME280;10182;52.896;6.496;2023-09-19T06:28:23;100632.63;;;12.86;100.00
20043;BME280;10182;52.896;6.496;2023-09-19T06:33:27;100626.28;;;12.89;100.00
20043;BME280;10182;52.896;6.496;2023-09-19T06:38:31;100636.16;;;12.86;100.00
20043;BME280;10182;52.896;6.496;2023-09-19T06:43:35;100629.13;;;12.85;100.00
20043;BME280;10182;52.896;6.496;2023-09-19T06:48:38;100616.16;;;12.79;100.00
20043;BME280;10182;52.896;6.496;2023-09-19T06:53:39;100622.56;;;12.77;100.00
20043;BME280;10182;52.896;6.496;2023-09-19T06:58:41;100621.94;;;12.88;100.00
20043;BME280;10182;52.896;6.496;2023-09-19T07:03:45;100623.22;;;13.11;100.00
20043;BME280;10182;52.896;6.496;2023-09-19T07:08:47;100621.09;;;13.32;100.00
20043;BME280;10182;52.896;6.496;2023-09-19T07:13:50;100621.34;;;13.58;100.00
20043;BME280;10182;52.896;6.496;2023-09-19T07:18:53;100625.63;;;13.60;100.00
20043;BME280;10182;52.896;6.496;2023-09-19T07:23:56;100632.19;;;13.69;100.00
20043;BME280;10182;52.896;6.496;2023-09-19T07:28:58;100628.38;;;13.73;100.00
20043;BME280;10182;52.896;6.496;2023-09-19T07:34:01;100634.66;;;13.72;100.00
20043;BME280;10182;52.896;6.496;2023-09-19T07:39:04;100640.84;;;13.73;100.00
20043;BME280;10182;52.896;6.496;2023-09-19T07:44:07;100630.47;;;13.68;100.00
20043;BME280;10182;52.896;6.496;2023-09-19T07:49:11;100636.75;;;13.81;100.00
20043;BME280;10182;52.896;6.496;2023-09-19T07:54:13;100633.22;;;13.95;100.00
20043;BME280;10182;52.896;6.496;2023-09-19T07:59:14;100644.53;;;14.13;100.00
20043;BME280;10182;52.896;6.496;2023-09-19T08:04:17;100643.84;;;14.24;100.00
20043;BME280;10182;52.896;6.496;2023-09-19T08:09:19;100638.81;;;14.34;100.00
20043;BME280;10182;52.896;6.496;2023-09-19T08:14:21;100629.19;;;14.31;100.00
20043;BME280;10182;52.896;6.496;2023-09-19T08:19:26;100636.19;;;14.47;100.00
20043;BME280;10182;52.896;6.496;2023-09-19T08:24:29;100641.44;;;14.63;100.00
20043;BME280;10182;52.896;6.496;2023-09-19T08:29:31;100630.13;;;14.72;100.00
20043;BME280;10182;52.896;6.496;2023-09-19T08:34:34;100615.66;;;14.76;100.00
20043;BME280;10182;52.896;6.496;2023-09-19T08:39:38;100623.16;;;14.84;100.00
20043;BME280;10182;52.896;6.496;2023-09-19T08:44:40;100616.88;;;14.98;100.00
20043;BME280;10182;52.896;6.496;2023-09-19T08:49:53;100618.22;;;15.18;100.00
20043;BME280;10182;52.896;6.496;2023-09-19T08:54:59;100630.81;;;15.29;100.00
20043;BME280;10182;52.896;6.496;2023-09-19T09:00:05;100621.00;;;15.29;100.00
20043;BME280;10182;52.896;6.496;2023-09-19T09:05:12;100625.50;;;15.42;100.00
20043;BME280;10182;52.896;6.496;2023-09-19T09:10:14;100619.09;;;15.57;100.00
20043;BME280;10182;52.896;6.496;2023-09-19T09:15:17;100617.41;;;15.82;100.00
20043;BME280;10182;52.896;6.496;2023-09-19T09:20:22;100625.94;;;16.00;100.00
20043;BME280;10182;52.896;6.496;2023-09-19T09:25:47;100635.09;;;16.21;100.00
20043;BME280;10182;52.896;6.496;2023-09-19T09:30:50;100609.38;;;16.32;100.00
20043;BME280;10182;52.896;6.496;2023-09-19T09:35:55;100620.06;;;16.32;100.00
20043;BME280;10182;52.896;6.496;2023-09-19T09:40:59;100622.25;;;16.51;100.00
20043;BME280;10182;52.896;6.496;2023-09-19T09:46:11;100609.66;;;16.53;100.00
20043;BME280;10182;52.896;6.496;2023-09-19T09:51:32;100616.53;;;16.68;100.00
20043;BME280;10182;52.896;6.496;2023-09-19T09:56:34;100620.88;;;16.45;100.00
20043;BME280;10182;52.896;6.496;2023-09-19T10:01:46;100605.31;;;16.63;100.00
20043;BME280;10182;52.896;6.496;2023-09-19T10:06:51;100612.00;;;16.69;100.00
20043;BME280;10182;52.896;6.496;2023-09-19T10:12:03;100612.16;;;16.91;100.00
20043;BME280;10182;52.896;6.496;2023-09-19T10:17:05;100609.69;;;16.88;100.00
20043;BME280;10182;52.896;6.496;2023-09-19T10:22:11;100599.75;;;16.90;100.00
20043;BME280;10182;52.896;6.496;2023-09-19T10:27:17;100597.19;;;16.89;100.00
20043;BME280;10182;52.896;6.496;2023-09-19T10:32:21;100610.22;;;16.94;100.00
20043;BME280;10182;52.896;6.496;2023-09-19T10:37:27;100597.19;;;16.89;100.00
20043;BME280;10182;52.896;6.496;2023-09-19T10:42:33;100583.50;;;17.05;100.00
20043;BME280;10182;52.896;6.496;2023-09-19T10:47:39;100587.78;;;17.19;100.00
20043;BME280;10182;52.896;6.496;2023-09-19T10:52:42;100591.94;;;17.23;100.00
20043;BME280;10182;52.896;6.496;2023-09-19T10:57:47;100580.34;;;17.11;100.00
20043;BME280;10182;52.896;6.496;2023-09-19T11:03:16;100583.06;;;17.34;100.00
20043;BME280;10182;52.896;6.496;2023-09-19T11:08:20;100571.03;;;17.39;100.00
20043;BME280;10182;52.896;6.496;2023-09-19T11:13:24;100581.16;;;17.47;100.00
20043;BME280;10182;52.896;6.496;2023-09-19T11:18:52;100568.50;;;17.61;100.00
20043;BME280;10182;52.896;6.496;2023-09-19T11:29:28;100546.56;;;17.78;100.00
20043;BME280;10182;52.896;6.496;2023-09-19T11:34:44;100546.22;;;17.83;100.00
20043;BME280;10182;52.896;6.496;2023-09-19T11:40:07;100540.03;;;17.93;100.00
20043;BME280;10182;52.896;6.496;2023-09-19T11:50:59;100543.53;;;17.83;100.00
20043;BME280;10182;52.896;6.496;2023-09-19T11:56:07;100532.09;;;17.69;100.00
20043;BME280;10182;52.896;6.496;2023-09-19T12:01:13;100531.13;;;17.59;100.00
20043;BME280;10182;52.896;6.496;2023-09-19T12:06:22;100527.34;;;17.62;100.00
20043;BME280;10182;52.896;6.496;2023-09-19T12:11:27;100517.47;;;17.51;100.00
20043;BME280;10182;52.896;6.496;2023-09-19T12:16:30;100521.25;;;17.37;100.00
20043;BME280;10182;52.896;6.496;2023-09-19T12:21:35;100527.00;;;17.32;100.00
20043;BME280;10182;52.896;6.496;2023-09-19T12:26:39;100522.09;;;17.26;100.00
20043;BME280;10182;52.896;6.496;2023-09-19T12:31:51;100512.97;;;17.29;100.00
20043;BME280;10182;52.896;6.496;2023-09-19T12:37:10;100507.03;;;17.48;100.00
20043;BME280;10182;52.896;6.496;2023-09-19T12:42:17;100497.91;;;17.50;100.00
20043;BME280;10182;52.896;6.496;2023-09-19T12:47:19;100489.16;;;17.59;100.00
20043;BME280;10182;52.896;6.496;2023-09-19T12:52:24;100488.41;;;17.46;100.00
20043;BME280;10182;52.896;6.496;2023-09-19T12:57:27;100491.22;;;17.45;100.00
20043;BME280;10182;52.896;6.496;2023-09-19T13:02:28;100488.66;;;17.43;100.00
20043;BME280;10182;52.896;6.496;2023-09-19T13:07:41;100480.75;;;17.41;100.00
20043;BME280;10182;52.896;6.496;2023-09-19T13:12:47;100488.88;;;17.40;100.00
20043;BME280;10182;52.896;6.496;2023-09-19T13:17:49;100491.81;;;17.37;100.00
20043;BME280;10182;52.896;6.496;2023-09-19T13:22:53;100485.72;;;17.46;100.00
20043;BME280;10182;52.896;6.496;2023-09-19T13:27:58;100491.09;;;17.46;100.00
20043;BME280;10182;52.896;6.496;2023-09-19T13:33:05;100495.84;;;17.54;100.00
20043;BME280;10182;52.896;6.496;2023-09-19T13:38:09;100485.13;;;17.54;100.00
20043;BME280;10182;52.896;6.496;2023-09-19T13:43:11;100502.28;;;17.51;100.00
20043;BME280;10182;52.896;6.496;2023-09-19T13:48:13;100496.31;;;17.48;100.00
20043;BME280;10182;52.896;6.496;2023-09-19T13:53:16;100500.84;;;17.47;100.00
20043;BME280;10182;52.896;6.496;2023-09-19T13:58:18;100487.66;;;17.44;100.00
20043;BME280;10182;52.896;6.496;2023-09-19T14:03:21;100478.69;;;17.56;100.00
20043;BME280;10182;52.896;6.496;2023-09-19T14:08:25;100487.78;;;17.65;100.00
20043;BME280;10182;52.896;6.496;2023-09-19T14:13:27;100475.00;;;17.69;100.00
20043;BME280;10182;52.896;6.496;2023-09-19T14:18:29;100470.63;;;17.68;100.00
20043;BME280;10182;52.896;6.496;2023-09-19T14:23:35;100454.91;;;17.74;100.00
20043;BME280;10182;52.896;6.496;2023-09-19T14:28:37;100461.84;;;17.77;100.00
20043;BME280;10182;52.896;6.496;2023-09-19T14:33:39;100467.56;;;17.72;100.00
20043;BME280;10182;52.896;6.496;2023-09-19T14:38:43;100463.91;;;17.73;100.00
20043;BME280;10182;52.896;6.496;2023-09-19T14:43:44;100469.28;;;17.73;100.00
20043;BME280;10182;52.896;6.496;2023-09-19T14:48:46;100471.22;;;17.71;100.00
20043;BME280;10182;52.896;6.496;2023-09-19T14:53:49;100466.38;;;17.65;100.00
20043;BME280;10182;52.896;6.496;2023-09-19T14:58:52;100465.53;;;17.65;100.00
20043;BME280;10182;52.896;6.496;2023-09-19T15:03:53;100464.66;;;17.64;100.00
20043;BME280;10182;52.896;6.496;2023-09-19T15:08:57;100477.56;;;17.59;100.00
20043;BME280;10182;52.896;6.496;2023-09-19T15:13:58;100495.72;;;17.10;100.00
20043;BME280;10182;52.896;6.496;2023-09-19T15:19:00;100489.91;;;16.81;100.00
20043;BME280;10182;52.896;6.496;2023-09-19T15:24:04;100478.13;;;16.83;100.00
20043;BME280;10182;52.896;6.496;2023-09-19T15:29:09;100474.41;;;16.97;100.00
20043;BME280;10182;52.896;6.496;2023-09-19T15:34:11;100468.94;;;17.10;100.00
20043;BME280;10182;52.896;6.496;2023-09-19T15:39:17;100498.38;;;17.10;100.00
20043;BME280;10182;52.896;6.496;2023-09-19T15:44:22;100487.06;;;16.95;100.00
20043;BME280;10182;52.896;6.496;2023-09-19T15:49:27;100482.78;;;16.92;100.00
20043;BME280;10182;52.896;6.496;2023-09-19T15:54:30;100488.03;;;16.94;100.00
20043;BME280;10182;52.896;6.496;2023-09-19T15:59:35;100494.72;;;17.00;100.00
20043;BME280;10182;52.896;6.496;2023-09-19T16:04:37;100486.19;;;16.95;100.00
20043;BME280;10182;52.896;6.496;2023-09-19T16:09:40;100501.22;;;16.84;100.00
20043;BME280;10182;52.896;6.496;2023-09-19T16:14:42;100517.06;;;16.63;100.00
20043;BME280;10182;52.896;6.496;2023-09-19T16:19:44;100526.66;;;16.30;100.00
20043;BME280;10182;52.896;6.496;2023-09-19T16:24:47;100537.78;;;16.00;100.00
20043;BME280;10182;52.896;6.496;2023-09-19T16:29:48;100540.19;;;15.66;100.00
20043;BME280;10182;52.896;6.496;2023-09-19T16:34:50;100542.13;;;15.51;100.00
20043;BME280;10182;52.896;6.496;2023-09-19T16:39:53;100526.22;;;15.49;100.00
20043;BME280;10182;52.896;6.496;2023-09-19T16:44:55;100512.53;;;15.54;100.00
20043;BME280;10182;52.896;6.496;2023-09-19T16:49:57;100522.91;;;15.59;100.00
20043;BME280;10182;52.896;6.496;2023-09-19T16:55:00;100522.56;;;15.63;100.00
20043;BME280;10182;52.896;6.496;2023-09-19T17:00:03;100526.72;;;15.67;100.00
20043;BME280;10182;52.896;6.496;2023-09-19T17:05:05;100523.81;;;15.70;100.00
20043;BME280;10182;52.896;6.496;2023-09-19T17:10:11;100510.38;;;15.72;100.00
20043;BME280;10182;52.896;6.496;2023-09-19T17:15:13;100524.22;;;15.77;100.00
20043;BME280;10182;52.896;6.496;2023-09-19T17:20:15;100514.88;;;15.84;100.00
20043;BME280;10182;52.896;6.496;2023-09-19T17:25:18;100512.50;;;15.93;100.00
20043;BME280;10182;52.896;6.496;2023-09-19T17:30:21;100518.56;;;15.95;100.00
20043;BME280;10182;52.896;6.496;2023-09-19T17:35:22;100523.50;;;15.88;100.00
20043;BME280;10182;52.896;6.496;2023-09-19T17:40:25;100519.63;;;15.92;100.00
20043;BME280;10182;52.896;6.496;2023-09-19T17:45:28;100519.88;;;15.89;100.00
20043;BME280;10182;52.896;6.496;2023-09-19T17:50:30;100516.56;;;15.85;100.00
20043;BME280;10182;52.896;6.496;2023-09-19T17:55:37;100527.97;;;15.74;100.00
20043;BME280;10182;52.896;6.496;2023-09-19T18:00:39;100530.75;;;15.73;100.00
20043;BME280;10182;52.896;6.496;2023-09-19T18:05:43;100531.81;;;15.70;100.00
20043;BME280;10182;52.896;6.496;2023-09-19T18:10:46;100536.44;;;15.68;100.00
20043;BME280;10182;52.896;6.496;2023-09-19T18:15:48;100534.19;;;15.62;100.00
20043;BME280;10182;52.896;6.496;2023-09-19T18:20:50;100541.59;;;15.59;100.00
20043;BME280;10182;52.896;6.496;2023-09-19T18:25:56;100543.00;;;15.51;100.00
20043;BME280;10182;52.896;6.496;2023-09-19T18:30:58;100547.78;;;15.46;100.00
20043;BME280;10182;52.896;6.496;2023-09-19T18:36:01;100552.47;;;15.43;100.00
20043;BME280;10182;52.896;6.496;2023-09-19T18:41:06;100552.94;;;15.36;100.00
20043;BME280;10182;52.896;6.496;2023-09-19T18:46:09;100555.66;;;15.35;100.00
20043;BME280;10182;52.896;6.496;2023-09-19T18:51:12;100559.22;;;15.35;100.00
20043;BME280;10182;52.896;6.496;2023-09-19T18:56:16;100562.00;;;15.34;100.00
20043;BME280;10182;52.896;6.496;2023-09-19T19:01:18;100556.13;;;15.29;100.00
20043;BME280;10182;52.896;6.496;2023-09-19T19:06:20;100554.63;;;15.25;100.00
20043;BME280;10182;52.896;6.496;2023-09-19T19:11:23;100551.13;;;15.24;100.00
20043;BME280;10182;52.896;6.496;2023-09-19T19:16:26;100565.41;;;15.23;100.00
20043;BME280;10182;52.896;6.496;2023-09-19T19:21:28;100559.97;;;15.25;100.00
20043;BME280;10182;52.896;6.496;2023-09-19T19:26:31;100559.00;;;15.26;100.00
20043;BME280;10182;52.896;6.496;2023-09-19T19:31:33;100563.69;;;15.22;100.00
20043;BME280;10182;52.896;6.496;2023-09-19T19:36:37;100556.53;;;15.22;100.00
20043;BME280;10182;52.896;6.496;2023-09-19T19:41:40;100554.63;;;15.25;100.00
20043;BME280;10182;52.896;6.496;2023-09-19T19:46:44;100559.13;;;15.24;100.00
20043;BME280;10182;52.896;6.496;2023-09-19T19:51:46;100566.13;;;15.25;100.00
20043;BME280;10182;52.896;6.496;2023-09-19T19:56:49;100564.63;;;15.21;100.00
20043;BME280;10182;52.896;6.496;2023-09-19T20:01:51;100565.81;;;15.17;100.00
20043;BME280;10182;52.896;6.496;2023-09-19T20:06:53;100567.41;;;15.19;100.00
20043;BME280;10182;52.896;6.496;2023-09-19T20:11:56;100575.41;;;15.19;100.00
20043;BME280;10182;52.896;6.496;2023-09-19T20:16:57;100575.19;;;15.22;100.00
20043;BME280;10182;52.896;6.496;2023-09-19T20:22:00;100587.47;;;15.25;100.00
20043;BME280;10182;52.896;6.496;2023-09-19T20:27:04;100587.47;;;15.25;100.00
20043;BME280;10182;52.896;6.496;2023-09-19T20:32:07;100585.47;;;15.29;100.00
20043;BME280;10182;52.896;6.496;2023-09-19T20:37:09;100569.34;;;15.30;100.00
20043;BME280;10182;52.896;6.496;2023-09-19T20:42:12;100575.22;;;15.35;100.00
20043;BME280;10182;52.896;6.496;2023-09-19T20:47:14;100564.66;;;15.34;100.00
20043;BME280;10182;52.896;6.496;2023-09-19T20:52:16;100576.81;;;15.38;100.00
20043;BME280;10182;52.896;6.496;2023-09-19T20:57:19;100566.78;;;15.42;100.00
20043;BME280;10182;52.896;6.496;2023-09-19T21:02:21;100569.88;;;15.48;100.00
20043;BME280;10182;52.896;6.496;2023-09-19T21:07:23;100565.28;;;15.50;100.00
20043;BME280;10182;52.896;6.496;2023-09-19T21:12:26;100557.06;;;15.53;100.00
20043;BME280;10182;52.896;6.496;2023-09-19T21:17:28;100568.59;;;15.54;100.00
20043;BME280;10182;52.896;6.496;2023-09-19T21:22:29;100573.84;;;15.55;100.00
20043;BME280;10182;52.896;6.496;2023-09-19T21:27:32;100556.72;;;15.58;100.00
20043;BME280;10182;52.896;6.496;2023-09-19T21:32:34;100565.38;;;15.62;100.00
20043;BME280;10182;52.896;6.496;2023-09-19T21:37:36;100557.25;;;15.63;100.00
20043;BME280;10182;52.896;6.496;2023-09-19T21:42:39;100554.38;;;15.66;100.00
20043;BME280;10182;52.896;6.496;2023-09-19T21:47:41;100550.63;;;15.69;100.00
20043;BME280;10182;52.896;6.496;2023-09-19T21:52:43;100538.03;;;15.71;100.00
20043;BME280;10182;52.896;6.496;2023-09-19T21:57:46;100540.59;;;15.72;100.00
20043;BME280;10182;52.896;6.496;2023-09-19T22:02:48;100552.66;;;15.78;100.00
20043;BME280;10182;52.896;6.496;2023-09-19T22:07:53;100552.56;;;15.80;100.00
20043;BME280;10182;52.896;6.496;2023-09-19T22:12:57;100551.50;;;15.82;100.00
20043;BME280;10182;52.896;6.496;2023-09-19T22:18:00;100565.50;;;15.86;100.00
20043;BME280;10182;52.896;6.496;2023-09-19T22:23:05;100550.44;;;15.85;100.00
20043;BME280;10182;52.896;6.496;2023-09-19T22:28:13;100546.47;;;15.90;100.00
20043;BME280;10182;52.896;6.496;2023-09-19T22:33:17;100550.72;;;15.93;100.00
20043;BME280;10182;52.896;6.496;2023-09-19T22:38:19;100543.47;;;15.95;100.00
20043;BME280;10182;52.896;6.496;2023-09-19T22:43:24;100538.13;;;15.95;100.00
20043;BME280;10182;52.896;6.496;2023-09-19T22:48:27;100546.47;;;15.90;100.00
20043;BME280;10182;52.896;6.496;2023-09-19T22:53:30;100559.81;;;15.78;100.00
20043;BME280;10182;52.896;6.496;2023-09-19T22:58:37;100575.41;;;15.71;100.00
20043;BME280;10182;52.896;6.496;2023-09-19T23:03:41;100563.03;;;15.70;100.00
20043;BME280;10182;52.896;6.496;2023-09-19T23:08:46;100553.09;;;15.72;100.00
20043;BME280;10182;52.896;6.496;2023-09-19T23:13:51;100563.44;;;15.77;100.00
20043;BME280;10182;52.896;6.496;2023-09-19T23:18:53;100571.44;;;15.77;100.00
20043;BME280;10182;52.896;6.496;2023-09-19T23:23:57;100579.03;;;15.70;100.00
20043;BME280;10182;52.896;6.496;2023-09-19T23:29:01;100580.66;;;15.60;100.00
20043;BME280;10182;52.896;6.496;2023-09-19T23:34:08;100591.03;;;15.51;100.00
20043;BME280;10182;52.896;6.496;2023-09-19T23:39:10;100598.50;;;15.46;100.00
20043;BME280;10182;52.896;6.496;2023-09-19T23:44:15;100583.09;;;15.50;100.00
20043;BME280;10182;52.896;6.496;2023-09-19T23:49:17;100587.50;;;15.51;100.00
20043;BME280;10182;52.896;6.496;2023-09-19T23:54:19;100587.06;;;15.57;100.00
20043;BME280;10182;52.896;6.496;2023-09-19T23:59:27;100587.59;;;15.62;100.00
